Karla A — TCCR8 — position and weather

sailwx.info

Track history (hours):
 
Tides and Currents Weather Stations Pressure Air Temp Water Temp Dewpoint Dewpoint Depression Visibility Wind Speed Wind Dir Waves Ship Positions

Karla A

Last reported at 2014-Oct-25 19:24 UTC. Time now 2014-Oct-30 15:12 UTC.
Position N 34°09' E 033°55'.

Length 155 m; draft 8.8 m.

Type: Ship (hazmat cat A). MMSI: 271000744.

Date/timePositionNaut miles runAvg speedWind from/ knotsBaromVisibWave heightAir tempDewpointWater temp
2014-Oct-25 19:24N 34°09' E 033°55'1113.3
2014-Oct-25 18:33N 33°59' E 033°49'1413.4
2014-Oct-25 17:31N 33°46' E 033°43'1313.4
2014-Oct-25 16:30N 33°33' E 033°37'1313.9
2014-Oct-25 15:33N 33°21' E 033°31'1414.3
2014-Oct-25 14:33N 33°08' E 033°25'1514.7
2014-Oct-25 13:33N 32°54' E 033°18'1715.7
2014-Oct-25 12:28N 32°39' E 033°10'1314.4
2014-Oct-25 11:33N 32°26' E 033°05'1414.0
2014-Oct-25 10:33N 32°14' E 032°58'  
2014-Oct-17 18:04N 31°49' E 032°40'  
Track history (hours):
 
Tides and Currents Weather Stations Pressure Air Temp Water Temp Dewpoint Dewpoint Depression Visibility Wind Speed Wind Dir Waves Ship Positions

Karla A

Last reported at 2014-Oct-25 19:24 UTC. Time now 2014-Oct-30 15:12 UTC.
Position N 34°09' E 033°55'.

Length 155 m; draft 8.8 m.

Type: Ship (hazmat cat A). MMSI: 271000744.

Date/timePositionNaut miles runAvg speedWind from/ knotsBaromVisibWave heightAir tempDewpointWater temp
2014-Oct-25 19:24N 34°09' E 033°55'1113.3
2014-Oct-25 18:33N 33°59' E 033°49'1413.4
2014-Oct-25 17:31N 33°46' E 033°43'1313.4
2014-Oct-25 16:30N 33°33' E 033°37'1313.9
2014-Oct-25 15:33N 33°21' E 033°31'1414.3
2014-Oct-25 14:33N 33°08' E 033°25'1514.7
2014-Oct-25 13:33N 32°54' E 033°18'1715.7
2014-Oct-25 12:28N 32°39' E 033°10'1314.4
2014-Oct-25 11:33N 32°26' E 033°05'1414.0
2014-Oct-25 10:33N 32°14' E 032°58'  
2014-Oct-17 18:04N 31°49' E 032°40'  

Dump ship's entire track history